createdAt,value
2023-02-25T00:02:08.532Z,3.23
2023-02-25T00:04:37.279Z,3.20
2023-02-25T00:07:05.730Z,3.40
2023-02-25T00:09:34.302Z,2.63
2023-02-25T00:12:03.105Z,2.73
2023-02-25T00:14:31.541Z,2.70
2023-02-25T00:17:02.243Z,2.63
2023-02-25T00:19:30.713Z,2.43
2023-02-25T00:21:59.132Z,3.23
2023-02-25T00:24:27.545Z,3.03
2023-02-25T00:26:55.940Z,2.80
2023-02-25T00:29:24.340Z,2.90
2023-02-25T00:31:52.983Z,2.53
2023-02-25T00:34:22.834Z,2.93
2023-02-25T00:36:51.348Z,2.43
2023-02-25T00:39:20.235Z,2.73
2023-02-25T00:41:48.670Z,2.30
2023-02-25T00:44:17.188Z,2.20
2023-02-25T00:46:45.718Z,2.63
2023-02-25T00:49:27.048Z,2.83
2023-02-25T00:52:01.950Z,2.80
2023-02-25T00:54:30.548Z,2.37
2023-02-25T00:56:59.068Z,2.27
2023-02-25T00:59:27.481Z,2.70
2023-02-25T01:01:56.044Z,2.80
2023-02-25T01:04:24.725Z,2.43
2023-02-25T01:06:54.224Z,2.90
2023-02-25T01:09:24.030Z,2.87
2023-02-25T01:11:53.127Z,2.70
2023-02-25T01:14:25.025Z,2.90
2023-02-25T01:16:56.248Z,2.73
2023-02-25T01:19:27.038Z,2.07
2023-02-25T01:21:59.569Z,2.37
2023-02-25T01:24:31.631Z,2.50
2023-02-25T01:27:03.355Z,2.50
2023-02-25T01:29:34.181Z,2.67
2023-02-25T01:32:04.625Z,2.73
2023-02-25T01:34:34.042Z,2.57
2023-02-25T01:37:05.090Z,2.90
2023-02-25T01:39:35.439Z,2.50
2023-02-25T01:42:12.970Z,2.50
2023-02-25T01:45:31.446Z,2.40
2023-02-25T01:48:14.483Z,2.20
2023-02-25T01:50:49.261Z,2.40
2023-02-25T01:53:23.178Z,2.10
2023-02-25T01:55:54.185Z,2.13
2023-02-25T01:58:23.640Z,2.47
2023-02-25T02:00:55.554Z,2.40
2023-02-25T02:03:26.761Z,3.30
2023-02-25T02:06:06.833Z,2.07
2023-02-25T02:08:36.810Z,2.47
2023-02-25T02:11:07.192Z,2.60
2023-02-25T02:13:39.052Z,2.70
2023-02-25T02:16:26.137Z,3.40
2023-02-25T02:18:59.825Z,9.10
2023-02-25T02:21:51.158Z,4.20
2023-02-25T02:25:01.225Z,3.50
2023-02-25T02:27:47.710Z,2.47
2023-02-25T02:30:38.504Z,3.30
2023-02-25T02:33:15.599Z,3.37
2023-02-25T02:35:53.701Z,2.47
2023-02-25T02:38:32.494Z,2.97
2023-02-25T02:41:09.793Z,2.67
2023-02-25T02:43:44.055Z,2.80
2023-02-25T02:46:22.160Z,2.93
2023-02-25T02:48:57.448Z,2.60
2023-02-25T02:51:33.128Z,2.80
2023-02-25T02:54:06.042Z,2.60
2023-02-25T02:56:37.363Z,1.97
2023-02-25T02:59:09.769Z,2.30
2023-02-25T03:01:43.777Z,2.53
2023-02-25T03:04:22.266Z,2.27
2023-02-25T03:06:57.002Z,2.50
2023-02-25T03:09:33.562Z,2.20
2023-02-25T03:12:02.238Z,1.90
2023-02-25T03:14:33.829Z,2.00
2023-02-25T03:17:08.476Z,2.67
2023-02-25T03:19:43.334Z,2.10
2023-02-25T03:22:15.635Z,1.97
2023-02-25T03:24:52.042Z,2.73
2023-02-25T03:27:28.499Z,2.13
2023-02-25T03:30:07.858Z,1.80
2023-02-25T03:32:38.555Z,2.00
2023-02-25T03:35:11.141Z,1.90
2023-02-25T03:37:43.577Z,1.93
2023-02-25T03:40:15.258Z,1.50
2023-02-25T03:42:48.701Z,1.80
2023-02-25T03:45:19.067Z,1.70
2023-02-25T03:47:48.492Z,2.10
2023-02-25T03:50:24.276Z,1.90
2023-02-25T03:52:58.057Z,1.80
2023-02-25T03:55:49.241Z,1.73
2023-02-25T03:58:17.746Z,1.70
2023-02-25T04:00:49.114Z,2.10
2023-02-25T04:03:17.457Z,1.30
2023-02-25T04:05:48.736Z,1.27
2023-02-25T04:08:17.087Z,1.43
2023-02-25T04:10:48.059Z,1.43
2023-02-25T04:13:20.921Z,1.80
2023-02-25T04:15:51.843Z,1.50
2023-02-25T04:18:20.935Z,1.50
2023-02-25T04:20:50.701Z,1.60
2023-02-25T04:23:19.024Z,1.13
2023-02-25T04:25:47.356Z,1.00
2023-02-25T04:28:15.702Z,1.50
2023-02-25T04:30:44.589Z,1.60
2023-02-25T04:33:13.651Z,1.23
2023-02-25T04:35:42.105Z,1.10
2023-02-25T04:38:11.933Z,1.47
2023-02-25T04:40:40.313Z,1.30
2023-02-25T04:43:09.918Z,1.17
2023-02-25T04:45:38.387Z,1.00
2023-02-25T04:48:07.618Z,1.37
2023-02-25T04:50:35.943Z,1.30
2023-02-25T04:53:04.455Z,1.30
2023-02-25T04:55:36.983Z,1.40
2023-02-25T04:58:05.346Z,2.23
2023-02-25T05:00:33.762Z,2.30
2023-02-25T05:03:02.084Z,2.20
2023-02-25T05:05:30.460Z,3.57
2023-02-25T05:07:58.780Z,3.60
2023-02-25T05:10:27.094Z,3.80
2023-02-25T05:12:56.904Z,3.30
2023-02-25T05:15:25.452Z,3.23
2023-02-25T05:17:53.822Z,3.07
2023-02-25T05:20:23.149Z,2.67
2023-02-25T05:22:51.530Z,2.47
2023-02-25T05:25:20.142Z,2.90
2023-02-25T05:27:48.838Z,2.53
2023-02-25T05:30:19.682Z,2.30
2023-02-25T05:32:48.188Z,2.00
2023-02-25T05:35:16.780Z,2.07
2023-02-25T05:37:45.180Z,1.90
2023-02-25T05:40:14.825Z,1.70
2023-02-25T05:42:43.180Z,1.47
2023-02-25T05:45:12.436Z,1.50
2023-02-25T05:47:42.155Z,1.53
2023-02-25T05:50:12.119Z,2.07
2023-02-25T05:52:40.460Z,2.60
2023-02-25T05:55:10.432Z,2.63
2023-02-25T05:57:38.886Z,3.00
2023-02-25T06:00:10.038Z,2.60
2023-02-25T06:02:44.274Z,2.50
2023-02-25T06:05:12.788Z,2.03
2023-02-25T06:07:41.157Z,2.43
2023-02-25T06:10:11.676Z,1.70
2023-02-25T06:12:40.178Z,1.80
2023-02-25T06:15:09.829Z,2.10
2023-02-25T06:17:38.189Z,1.73
2023-02-25T06:20:10.552Z,1.93
2023-02-25T06:22:38.946Z,1.70
2023-02-25T06:25:09.018Z,1.90
2023-02-25T06:27:37.335Z,1.60
2023-02-25T06:30:06.711Z,1.90
2023-02-25T06:32:35.157Z,1.60
2023-02-25T06:35:03.649Z,1.60
2023-02-25T06:37:33.553Z,1.80
2023-02-25T06:40:01.888Z,1.80
2023-02-25T06:42:30.226Z,1.77
2023-02-25T06:44:58.673Z,1.80
2023-02-25T06:47:27.011Z,2.03
2023-02-25T06:49:55.314Z,2.40
2023-02-25T06:52:23.855Z,1.93
2023-02-25T06:54:53.613Z,1.90
2023-02-25T06:57:21.953Z,2.03
2023-02-25T06:59:50.397Z,2.20
2023-02-25T07:02:18.705Z,1.87
2023-02-25T07:04:47.344Z,2.30
2023-02-25T07:07:15.734Z,2.53
2023-02-25T07:09:44.067Z,2.40
2023-02-25T07:12:14.231Z,2.57
2023-02-25T07:14:42.969Z,2.40
2023-02-25T07:17:11.251Z,3.50
2023-02-25T07:19:39.624Z,3.03
2023-02-25T07:22:09.921Z,2.70
2023-02-25T07:24:39.015Z,2.87
2023-02-25T07:27:08.111Z,2.47
2023-02-25T07:29:37.817Z,10.70
2023-02-25T07:32:07.166Z,10.13
2023-02-25T07:34:35.698Z,15.60
2023-02-25T07:37:04.014Z,11.70
2023-02-25T07:39:32.334Z,7.67
2023-02-25T07:42:00.705Z,8.13
2023-02-25T07:44:30.219Z,6.30
2023-02-25T07:46:59.905Z,4.93
2023-02-25T07:49:28.348Z,4.70
2023-02-25T07:51:56.712Z,3.77
2023-02-25T07:54:25.126Z,5.17
2023-02-25T07:56:53.655Z,4.80
2023-02-25T07:59:23.139Z,3.60
2023-02-25T08:01:51.444Z,3.47
2023-02-25T08:04:21.313Z,3.53
2023-02-25T08:06:49.776Z,2.77
2023-02-25T08:09:18.492Z,2.97
2023-02-25T08:11:48.103Z,3.07
2023-02-25T08:14:16.461Z,3.73
2023-02-25T08:16:44.783Z,2.90
2023-02-25T08:19:13.110Z,2.93
2023-02-25T08:21:48.485Z,2.87
2023-02-25T08:24:20.712Z,2.93
2023-02-25T08:26:51.392Z,3.00
2023-02-25T08:29:19.866Z,3.70
2023-02-25T08:31:49.108Z,3.23
2023-02-25T08:34:18.163Z,3.57
2023-02-25T08:36:47.939Z,2.67
2023-02-25T08:39:17.183Z,2.53
2023-02-25T08:41:45.950Z,2.57
2023-02-25T08:44:14.319Z,3.07
2023-02-25T08:46:43.322Z,2.37
2023-02-25T08:49:11.775Z,2.13
2023-02-25T08:51:40.979Z,2.60
2023-02-25T08:54:15.795Z,2.37
2023-02-25T08:56:45.689Z,2.00
2023-02-25T08:59:17.120Z,2.90
2023-02-25T09:01:46.393Z,2.57
2023-02-25T09:04:17.367Z,2.50
2023-02-25T09:06:48.100Z,2.93
2023-02-25T09:09:19.811Z,2.43
2023-02-25T09:11:50.200Z,2.33
2023-02-25T09:14:19.578Z,3.47
2023-02-25T09:16:48.394Z,3.63
2023-02-25T09:19:18.564Z,2.77
2023-02-25T09:21:48.978Z,2.70
2023-02-25T09:24:20.308Z,3.00
2023-02-25T09:26:49.262Z,3.30
2023-02-25T09:29:18.051Z,3.57
2023-02-25T09:31:46.589Z,3.13
2023-02-25T09:34:15.057Z,2.60
2023-02-25T09:36:43.860Z,2.07
2023-02-25T09:39:12.317Z,2.20
2023-02-25T09:41:55.583Z,2.40
2023-02-25T09:44:28.498Z,2.80
2023-02-25T09:47:02.861Z,2.83
2023-02-25T09:49:36.932Z,2.47
2023-02-25T09:52:14.321Z,2.40
2023-02-25T09:54:47.048Z,2.50
2023-02-25T09:57:20.090Z,2.10
2023-02-25T09:59:49.667Z,1.40
2023-02-25T10:02:30.388Z,2.17
2023-02-25T10:05:19.223Z,2.67
2023-02-25T10:07:59.338Z,1.93
2023-02-25T10:10:39.698Z,2.47
2023-02-25T10:13:25.398Z,1.73
2023-02-25T10:16:07.356Z,1.63
2023-02-25T10:18:54.956Z,2.20
2023-02-25T10:21:43.273Z,1.77
2023-02-25T10:24:28.371Z,1.77
2023-02-25T10:27:05.222Z,1.90
2023-02-25T10:29:46.676Z,1.97
2023-02-25T10:32:21.914Z,2.20
2023-02-25T10:34:52.778Z,2.03
2023-02-25T10:37:27.231Z,2.23
2023-02-25T10:40:05.112Z,1.40
2023-02-25T10:42:33.891Z,1.60
2023-02-25T10:45:15.014Z,1.97
2023-02-25T10:47:48.870Z,1.67
2023-02-25T10:50:42.776Z,1.90
2023-02-25T10:53:17.082Z,2.00
2023-02-25T10:55:53.980Z,1.87
2023-02-25T10:58:33.376Z,1.70
2023-02-25T11:01:10.347Z,1.73
2023-02-25T11:03:48.396Z,2.10
2023-02-25T11:06:24.911Z,2.10
2023-02-25T11:08:56.466Z,1.90
2023-02-25T11:11:30.379Z,1.77
2023-02-25T11:14:14.404Z,1.90
2023-02-25T11:16:46.039Z,2.13
2023-02-25T11:19:23.021Z,2.47
2023-02-25T11:21:52.675Z,2.27
2023-02-25T11:24:33.379Z,1.87
2023-02-25T11:27:03.972Z,2.10
2023-02-25T11:29:35.351Z,1.77
2023-02-25T11:32:17.342Z,3.60
2023-02-25T11:34:50.959Z,6.17
2023-02-25T11:37:37.175Z,5.53
2023-02-25T11:40:26.207Z,2.83
2023-02-25T11:43:18.107Z,2.53
2023-02-25T11:45:57.015Z,2.07
2023-02-25T11:48:39.222Z,2.17
2023-02-25T11:51:21.308Z,1.90
2023-02-25T11:54:05.812Z,1.40
2023-02-25T11:56:38.164Z,1.57
2023-02-25T11:59:31.755Z,2.23
2023-02-25T12:02:24.080Z,1.73
2023-02-25T12:05:47.753Z,1.63
2023-02-25T12:08:40.228Z,2.00
2023-02-25T12:11:44.716Z,1.90
2023-02-25T12:15:01.687Z,1.83
2023-02-25T12:18:21.371Z,1.60
2023-02-25T12:21:44.892Z,1.63
2023-02-25T12:24:43.487Z,2.13
2023-02-25T12:27:48.381Z,3.33
2023-02-25T12:31:02.980Z,5.63
2023-02-25T12:34:00.045Z,6.43
2023-02-25T12:36:49.954Z,3.60
2023-02-25T12:39:43.030Z,3.13
2023-02-25T12:42:34.168Z,3.07
2023-02-25T12:45:45.369Z,4.73
2023-02-25T12:49:08.503Z,3.53
2023-02-25T12:52:23.147Z,2.37
2023-02-25T12:55:19.002Z,2.03
2023-02-25T12:58:07.762Z,1.53
2023-02-25T13:01:22.392Z,3.27
2023-02-25T13:04:14.990Z,2.70
2023-02-25T13:07:20.187Z,3.50
2023-02-25T13:10:09.376Z,4.30
2023-02-25T13:13:14.068Z,2.47
2023-02-25T13:15:56.875Z,2.80
2023-02-25T13:18:36.536Z,2.40
2023-02-25T13:21:26.610Z,2.33
2023-02-25T13:24:30.159Z,2.43
2023-02-25T13:27:35.158Z,1.67
2023-02-25T13:30:31.112Z,1.80
2023-02-25T13:33:13.972Z,1.63
2023-02-25T13:35:54.856Z,1.47
2023-02-25T13:38:39.706Z,1.40
2023-02-25T13:41:47.696Z,1.90
2023-02-25T13:44:52.126Z,2.63
2023-02-25T13:47:41.815Z,1.57
2023-02-25T13:50:56.836Z,1.50
2023-02-25T13:53:47.725Z,1.80
2023-02-25T13:56:42.995Z,1.20
2023-02-25T13:59:33.489Z,1.00
2023-02-25T14:02:27.396Z,1.67
2023-02-25T14:05:35.681Z,1.50
2023-02-25T14:08:22.442Z,1.00
2023-02-25T14:11:02.289Z,0.80
2023-02-25T14:14:29.799Z,2.10
2023-02-25T14:17:38.120Z,1.87
2023-02-25T14:20:22.106Z,2.30
2023-02-25T14:22:54.155Z,1.57
2023-02-25T14:25:53.505Z,1.43
2023-02-25T14:28:33.101Z,1.73
2023-02-25T14:31:15.948Z,1.20
2023-02-25T14:34:00.812Z,1.23
2023-02-25T14:36:55.024Z,0.97
2023-02-25T14:39:33.714Z,1.00
2023-02-25T14:42:29.927Z,1.00
2023-02-25T14:45:05.466Z,0.77
2023-02-25T14:47:42.799Z,1.10
2023-02-25T14:50:20.022Z,1.10
2023-02-25T14:53:21.666Z,0.70
2023-02-25T14:56:20.729Z,1.00
2023-02-25T14:59:12.580Z,1.20
2023-02-25T15:01:53.497Z,0.70
2023-02-25T15:05:18.155Z,0.70
2023-02-25T15:08:10.480Z,1.10
2023-02-25T15:10:59.971Z,1.10
2023-02-25T15:14:06.976Z,1.77
2023-02-25T15:17:27.361Z,1.00
2023-02-25T15:20:23.530Z,1.20
2023-02-25T15:23:07.345Z,0.73
2023-02-25T15:26:22.570Z,0.93
2023-02-25T15:28:51.940Z,0.90
2023-02-25T15:31:31.340Z,0.93
2023-02-25T15:34:38.295Z,1.17
2023-02-25T15:37:37.508Z,0.80
2023-02-25T15:40:50.679Z,0.93
2023-02-25T15:43:45.231Z,1.23
2023-02-25T15:46:43.436Z,1.00
2023-02-25T15:49:24.171Z,1.10
2023-02-25T15:51:55.985Z,0.70
2023-02-25T15:54:48.663Z,0.60
2023-02-25T15:57:39.157Z,0.90
2023-02-25T16:03:03.647Z,2.03
2023-02-25T16:05:36.333Z,3.80
2023-02-25T16:08:15.519Z,3.90
2023-02-25T16:10:47.541Z,2.23
2023-02-25T16:13:24.352Z,1.10
2023-02-25T16:15:57.353Z,1.30
2023-02-25T16:18:33.205Z,2.20
2023-02-25T16:21:14.454Z,2.20
2023-02-25T16:23:45.947Z,2.23
2023-02-25T16:26:30.408Z,2.40
2023-02-25T16:29:15.862Z,1.90
2023-02-25T16:31:51.971Z,2.00
2023-02-25T16:34:28.325Z,1.63
2023-02-25T16:37:10.696Z,1.80
2023-02-25T16:39:39.370Z,1.90
2023-02-25T16:42:14.546Z,1.50
2023-02-25T16:44:48.089Z,1.70
2023-02-25T16:47:25.469Z,1.40
2023-02-25T16:49:57.917Z,1.80
2023-02-25T16:52:32.170Z,1.53
2023-02-25T16:55:05.607Z,1.70
2023-02-25T16:57:36.294Z,1.40
2023-02-25T17:00:17.132Z,1.90
2023-02-25T17:02:48.857Z,2.03
2023-02-25T17:05:29.166Z,2.30
2023-02-25T17:08:01.150Z,2.60
2023-02-25T17:10:35.200Z,2.43
2023-02-25T17:13:05.261Z,2.97
2023-02-25T17:15:36.534Z,3.57
2023-02-25T17:18:11.042Z,4.10
2023-02-25T17:20:42.585Z,4.33
2023-02-25T17:23:14.299Z,4.70
2023-02-25T17:25:46.333Z,3.30
2023-02-25T17:28:22.797Z,3.30
2023-02-25T17:30:52.429Z,2.97
2023-02-25T17:33:26.295Z,2.80
2023-02-25T17:36:01.322Z,2.73
2023-02-25T17:38:30.103Z,2.50
2023-02-25T17:40:59.380Z,8.10
2023-02-25T17:43:36.158Z,6.90
2023-02-25T17:46:17.708Z,5.87
2023-02-25T17:48:53.442Z,4.87
2023-02-25T17:51:33.469Z,4.57
2023-02-25T17:54:07.866Z,4.97
2023-02-25T17:56:38.031Z,5.00
2023-02-25T17:59:28.628Z,5.70
2023-02-25T18:01:59.768Z,4.53
2023-02-25T18:04:36.041Z,4.57
2023-02-25T18:07:29.857Z,3.93
2023-02-25T18:09:58.580Z,3.60
2023-02-25T18:12:29.517Z,4.93
2023-02-25T18:15:00.422Z,6.30
2023-02-25T18:17:30.609Z,5.00
2023-02-25T18:20:01.922Z,5.50
2023-02-25T18:22:39.140Z,6.83
2023-02-25T18:25:30.266Z,6.80
2023-02-25T18:27:58.946Z,8.70
2023-02-25T18:30:30.636Z,9.03
2023-02-25T18:33:00.025Z,9.60
2023-02-25T18:35:31.082Z,7.03
2023-02-25T18:38:01.782Z,6.00
2023-02-25T18:40:32.971Z,5.80
2023-02-25T18:43:01.735Z,4.93
2023-02-25T18:45:32.421Z,4.07
2023-02-25T18:48:01.756Z,3.30
2023-02-25T18:50:33.113Z,2.70
2023-02-25T18:53:03.138Z,1.47
2023-02-25T18:55:34.148Z,1.80
2023-02-25T18:58:02.911Z,2.80
2023-02-25T19:00:31.358Z,2.13
2023-02-25T19:03:02.236Z,1.73
2023-02-25T19:05:31.402Z,2.47
2023-02-25T19:08:00.022Z,1.20
2023-02-25T19:10:34.141Z,1.60
2023-02-25T19:13:05.429Z,1.40
2023-02-25T19:15:33.994Z,1.77
2023-02-25T19:18:02.481Z,1.83
2023-02-25T19:20:30.799Z,1.57
2023-02-25T19:22:59.098Z,2.10
2023-02-25T19:25:31.932Z,2.27
2023-02-25T19:28:00.221Z,2.47
2023-02-25T19:30:32.085Z,3.60
2023-02-25T19:33:03.482Z,2.40
2023-02-25T19:35:36.126Z,2.40
2023-02-25T19:38:04.708Z,1.87
2023-02-25T19:40:35.048Z,1.70
2023-02-25T19:43:04.678Z,2.03
2023-02-25T19:45:33.983Z,1.80
2023-02-25T19:48:02.342Z,2.00
2023-02-25T19:50:34.665Z,1.87
2023-02-25T19:53:05.581Z,2.00
2023-02-25T19:55:35.641Z,1.90
2023-02-25T19:58:03.953Z,2.03
2023-02-25T20:00:32.623Z,2.10
2023-02-25T20:03:00.925Z,2.37
2023-02-25T20:05:29.396Z,3.00
2023-02-25T20:07:57.832Z,3.00
2023-02-25T20:10:26.275Z,3.60
2023-02-25T20:12:55.962Z,5.50
2023-02-25T20:15:24.243Z,6.40
2023-02-25T20:17:55.050Z,6.50
2023-02-25T20:20:23.879Z,6.43
2023-02-25T20:22:52.465Z,7.90
2023-02-25T20:25:21.266Z,18.67
2023-02-25T20:27:49.591Z,20.87
2023-02-25T20:30:19.600Z,24.20
2023-02-25T20:32:48.110Z,23.83
2023-02-25T20:35:21.315Z,18.83
2023-02-25T20:38:11.046Z,17.60
2023-02-25T20:40:39.672Z,12.57
2023-02-25T20:43:10.139Z,11.40
2023-02-25T20:45:41.146Z,11.33
2023-02-25T20:48:22.226Z,8.73
2023-02-25T20:50:51.178Z,7.27
2023-02-25T20:53:19.905Z,6.80
2023-02-25T20:55:48.171Z,6.63
2023-02-25T20:58:17.151Z,5.70
2023-02-25T21:00:46.815Z,5.80
2023-02-25T21:03:15.155Z,5.53
2023-02-25T21:05:43.583Z,4.90
2023-02-25T21:08:11.866Z,4.80
2023-02-25T21:10:40.136Z,5.20
2023-02-25T21:13:08.425Z,5.37
2023-02-25T21:15:36.860Z,5.60
2023-02-25T21:18:06.813Z,6.70
2023-02-25T21:20:35.129Z,7.63
2023-02-25T21:23:03.545Z,9.63
2023-02-25T21:25:32.076Z,11.30
2023-02-25T21:28:00.423Z,9.60
2023-02-25T21:30:28.921Z,9.93
2023-02-25T21:32:57.624Z,7.80
2023-02-25T21:35:27.356Z,9.17
2023-02-25T21:37:55.656Z,8.20
2023-02-25T21:40:23.964Z,7.90
2023-02-25T21:42:52.311Z,8.40
2023-02-25T21:45:20.564Z,8.33
2023-02-25T21:47:48.923Z,6.93
2023-02-25T21:50:18.123Z,6.13
2023-02-25T21:52:47.948Z,6.30
2023-02-25T21:55:16.511Z,6.20
2023-02-25T21:57:45.060Z,6.43
2023-02-25T22:00:15.505Z,6.03
2023-02-25T22:02:44.008Z,5.37
2023-02-25T22:05:12.386Z,6.27
2023-02-25T22:07:40.666Z,4.80
2023-02-25T22:10:12.684Z,6.00
2023-02-25T22:12:40.988Z,5.47
2023-02-25T22:15:11.088Z,5.73
2023-02-25T22:17:39.827Z,6.00
2023-02-25T22:20:10.148Z,6.00
2023-02-25T22:22:39.093Z,5.83
2023-02-25T22:25:09.626Z,5.43
2023-02-25T22:27:38.256Z,5.10
2023-02-25T22:30:08.855Z,4.80
2023-02-25T22:32:37.743Z,5.37
2023-02-25T22:35:07.743Z,5.67
2023-02-25T22:37:36.178Z,6.07
2023-02-25T22:40:05.345Z,5.53
2023-02-25T22:42:35.087Z,6.00
2023-02-25T22:45:03.459Z,7.00
2023-02-25T22:47:32.404Z,6.13
2023-02-25T22:50:00.759Z,5.73
2023-02-25T22:52:29.232Z,5.53
2023-02-25T22:54:57.737Z,5.53
2023-02-25T22:57:26.365Z,5.63
2023-02-25T22:59:56.160Z,6.60
2023-02-25T23:02:24.842Z,6.50
2023-02-25T23:04:53.279Z,6.33
2023-02-25T23:07:21.657Z,7.37
2023-02-25T23:09:50.067Z,7.43
2023-02-25T23:12:19.783Z,6.87
2023-02-25T23:14:49.018Z,6.27
2023-02-25T23:17:20.763Z,7.47
2023-02-25T23:19:49.687Z,7.07
2023-02-25T23:22:24.992Z,7.37
2023-02-25T23:24:53.360Z,7.17
2023-02-25T23:27:21.707Z,6.77
2023-02-25T23:29:50.135Z,7.73
2023-02-25T23:32:19.948Z,6.60
2023-02-25T23:34:49.624Z,6.93
2023-02-25T23:37:18.111Z,7.27
2023-02-25T23:39:46.491Z,8.03
2023-02-25T23:42:14.839Z,7.40
2023-02-25T23:44:43.191Z,7.07
2023-02-25T23:47:11.711Z,6.67
2023-02-25T23:49:41.486Z,5.27
2023-02-25T23:52:09.932Z,4.10
2023-02-25T23:54:38.303Z,2.83
2023-02-25T23:57:07.155Z,3.77
2023-02-25T23:59:35.899Z,4.13
